New Madrid, MO (63869)

6:28 AM CDT on July 30, 2016 (GMT -0500)
SEMO Electric Coop | | Change Station

Elev 338 ft 36.85 °N, 89.58 °W | Updated 8 minutes ago

Overcast
Overcast
70.3 °F
Feels Like 70.3 °F
N
3.0
Wind Variable Wind from SW
Gusts 3.0 mph

Today
High -- | Low -- °F
--% Chance of Precip.
Yesterday
High -- | Low -- °F
Precip. -- in
Pressure 29.98 in
Visibility 9.0 miles
Clouds Overcast 400 ft
Dew Point 69 °F
Humidity 97%
Rainfall 0.00 in
Snow Depth Not available.
6:03 AM 8:05 PM
Waning Crescent, 14% visible
METAR KUCY 301115Z AUTO 21003KT 9SM OVC004 22/22 A2998 RMK
Pressure 29.98 in
Visibility 9.0 miles
Clouds Overcast 400 ft
Dew Point 69 °F
Humidity 97%
Rainfall 0.00 in
Snow Depth Not available.
6:03 AM 8:05 PM
Waning Crescent, 14% visible
METAR KUCY 301115Z AUTO 21003KT 9SM OVC004 22/22 A2998 RMK

10-Day Weather Forecast

Almanac

Astronomy

Jul. 30, 2016 Rise Set
Actual Time
Civil Twilight
Nautical Twilight
Astronomical Twilight
Moon
Length of Visible Light
Length of Day
Tomorrow will be .
, % of the Moon is Illuminated

Today's Extremes

State Highs State Lows

Community

WunderPhotos

Upload Photos

1,928,530 photos uploaded!

WunderBlog® & News

Nearby

Air Quality

  Air Quality AQ Index Pollutant
Not available.

Snow Depth

Station Depth Elevation

Earthquake Activity

City Distance Mag. Time & Date
Minimum magnitude displayed is 2.5.

Coastal Water Temperatures

Place Temperature

Stations

Nearby Weather Stations

Station Location Temp. Windchill Dew Point Humidity Wind Precip. Elev Updated Type
                   

Watches & Warnings

There are currently no watches in effect.